Time;durP1;ratioP1;P1;durP2;ratioP2;P2;SDS_P1;SDS_P2;PMS_P1;PMS_P2;Temp;Humidity;BMP_temperature;BMP_pressure;BME280_temperature;BME280_humidity;BME280_pressure;Samples;Min_cycle;Max_cycle;Signal;HPM_P1;HPM_P2
2021/08/16 00:01:03;;;;;;;11.53;9.40;;;;;;;;;;6216883;23;20399;-88
2021/08/16 00:03:31;;;;;;;13.37;9.47;;;;;;;;;;6215039;23;20388;-88
2021/08/16 00:05:58;;;;;;;11.20;9.60;;;;;;;;;;6216743;23;20426;-89
2021/08/16 00:08:25;;;;;;;11.30;10.20;;;;;;;;;;6215189;23;20435;-89
2021/08/16 00:10:52;;;;;;;13.83;9.27;;;;;;;;;;6216713;23;20399;-88
2021/08/16 00:13:24;;;;;;;16.13;10.17;;;20.80;99.90;;;;;;6216379;23;20396;-89
2021/08/16 00:15:51;;;;;;;15.87;8.90;;;;;;;;;;6216914;23;20780;-89
2021/08/16 00:18:18;;;;;;;13.13;9.70;;;;;;;;;;6216922;23;20394;-89
2021/08/16 00:20:46;;;;;;;11.23;10.07;;;;;;;;;;6216673;23;20746;-88
2021/08/16 00:23:13;;;;;;;9.77;8.90;;;;;;;;;;6216661;23;20696;-88
2021/08/16 00:25:40;;;;;;;12.50;9.80;;;;;;;;;;6216067;23;20387;-90
2021/08/16 00:28:07;;;;;;;12.83;9.40;;;;;;;;;;6210536;23;20935;-89
2021/08/16 00:30:36;;;;;;;13.60;10.33;;;20.80;99.90;;;;;;6216335;23;20395;-87
2021/08/16 00:33:03;;;;;;;11.30;8.63;;;;;;;;;;6216783;23;20391;-89
2021/08/16 00:35:30;;;;;;;15.27;10.20;;;;;;;;;;6216852;23;20455;-90
2021/08/16 00:37:57;;;;;;;12.47;9.70;;;;;;;;;;6215824;23;20402;-89
2021/08/16 00:40:25;;;;;;;11.97;9.57;;;;;;;;;;6214873;23;20398;-90
2021/08/16 00:42:52;;;;;;;10.90;9.80;;;;;;;;;;6215873;23;20383;-89
2021/08/16 00:45:19;;;;;;;12.80;9.00;;;;;;;;;;6217179;23;20398;-87
2021/08/16 00:47:47;;;;;;;10.90;9.80;;;20.80;99.90;;;;;;6218120;23;20443;-89
2021/08/16 00:50:15;;;;;;;11.10;9.90;;;20.70;99.90;;;;;;6215057;23;20391;-88
2021/08/16 00:52:43;;;;;;;10.27;9.03;;;20.70;99.90;;;;;;6243173;23;20394;-88
2021/08/16 00:55:11;;;;;;;16.30;9.20;;;20.70;99.90;;;;;;6239252;23;20400;-89
2021/08/16 00:57:39;;;;;;;10.97;9.10;;;;;;;;;;6216498;23;20404;-89
2021/08/16 01:00:08;;;;;;;11.63;9.43;;;20.50;99.90;;;;;;6216390;23;20744;-88
2021/08/16 01:02:36;;;;;;;10.17;9.00;;;20.70;99.90;;;;;;6216390;23;20717;-91
2021/08/16 01:05:06;;;;;;;11.07;9.47;;;20.70;99.90;;;;;;6215352;23;20762;-89
2021/08/16 01:07:33;;;;;;;15.33;9.80;;;;;;;;;;6215501;23;20450;-88
2021/08/16 01:10:01;;;;;;;10.10;8.70;;;;;;;;;;6214683;23;20396;-88
2021/08/16 01:12:28;;;;;;;13.77;10.30;;;;;;;;;;6215525;23;20388;-88
2021/08/16 01:14:56;;;;;;;10.60;9.70;;;;;;;;;;6214055;23;20392;-89
2021/08/16 01:17:23;;;;;;;10.70;9.60;;;;;;;;;;6216296;23;20399;-88
2021/08/16 01:19:50;;;;;;;12.80;10.80;;;;;;;;;;6216114;23;20396;-89
2021/08/16 01:22:20;;;;;;;11.17;9.87;;;20.50;99.90;;;;;;6213694;23;20400;-89
2021/08/16 01:24:47;;;;;;;14.80;10.60;;;;;;;;;;6214628;23;20392;-88
2021/08/16 01:27:16;;;;;;;11.20;10.10;;;20.40;99.90;;;;;;6216787;23;20392;-88
2021/08/16 01:29:43;;;;;;;10.73;9.53;;;;;;;;;;6216090;23;20422;-89
2021/08/16 01:32:10;;;;;;;11.53;9.80;;;;;;;;;;6213239;23;20431;-88
2021/08/16 01:34:38;;;;;;;11.87;10.20;;;;;;;;;;6215216;23;20383;-91
2021/08/16 01:37:05;;;;;;;10.77;9.53;;;;;;;;;;6216137;23;20402;-88
2021/08/16 01:39:32;;;;;;;13.27;10.93;;;;;;;;;;6214493;23;20396;-89
2021/08/16 01:42:00;;;;;;;12.33;10.40;;;;;;;;;;6216119;23;20391;-90
2021/08/16 01:44:28;;;;;;;15.03;9.33;;;;;;;;;;6215314;23;20419;-88
2021/08/16 01:46:55;;;;;;;13.83;10.97;;;;;;;;;;6215897;23;20403;-87
2021/08/16 01:49:23;;;;;;;11.47;10.20;;;;;;;;;;6213783;23;20435;-88
2021/08/16 01:51:50;;;;;;;12.17;10.63;;;;;;;;;;6216010;23;20406;-89
2021/08/16 01:54:19;;;;;;;13.97;11.27;;;20.00;99.90;;;;;;6214361;23;20399;-87
2021/08/16 01:56:46;;;;;;;10.13;8.97;;;;;;;;;;6215983;23;20395;-87
2021/08/16 01:59:13;;;;;;;13.63;10.60;;;;;;;;;;6216148;23;20400;-88
2021/08/16 02:01:42;;;;;;;11.03;8.80;;;20.30;99.90;;;;;;6216054;23;20422;-90
2021/08/16 02:04:09;;;;;;;15.13;9.70;;;;;;;;;;6215132;23;20423;-89
2021/08/16 02:06:36;;;;;;;11.77;10.00;;;;;;;;;;6215394;23;20388;-88
2021/08/16 02:09:04;;;;;;;10.30;9.30;;;20.20;99.90;;;;;;6216489;23;20439;-88
2021/08/16 02:11:31;;;;;;;14.07;9.67;;;;;;;;;;6215780;23;20880;-89
2021/08/16 02:13:59;;;;;;;11.90;9.97;;;;;;;;;;6217578;23;20882;-90
2021/08/16 02:16:26;;;;;;;10.20;9.23;;;;;;;;;;6217988;23;20399;-87
2021/08/16 02:18:54;;;;;;;11.00;9.63;;;19.90;99.90;;;;;;6217585;23;20391;-89
2021/08/16 02:21:21;;;;;;;10.33;9.30;;;;;;;;;;6217750;23;20391;-89
2021/08/16 02:23:49;;;;;;;11.40;10.20;;;;;;;;;;6216462;23;20402;-89
2021/08/16 02:26:16;;;;;;;12.10;9.40;;;;;;;;;;6217806;23;20395;-89
2021/08/16 02:28:43;;;;;;;9.20;8.03;;;;;;;;;;6217656;23;20778;-89
2021/08/16 02:31:10;;;;;;;12.03;9.10;;;;;;;;;;6217709;23;20439;-89
2021/08/16 02:33:38;;;;;;;15.20;10.33;;;;;;;;;;6215252;23;20395;-89
2021/08/16 02:36:06;;;;;;;15.97;10.37;;;19.70;99.90;;;;;;6217830;23;20399;-89
2021/08/16 02:38:33;;;;;;;10.77;9.63;;;;;;;;;;6213911;23;21057;-90
2021/08/16 02:41:01;;;;;;;12.03;10.47;;;;;;;;;;6217750;23;20395;-90
2021/08/16 02:43:28;;;;;;;10.10;8.97;;;;;;;;;;6213232;23;20445;-88
2021/08/16 02:45:55;;;;;;;10.43;8.40;;;;;;;;;;6217481;23;20871;-88
2021/08/16 02:48:22;;;;;;;10.07;8.63;;;;;;;;;;6217495;23;20442;-89
2021/08/16 02:50:50;;;;;;;10.63;8.70;;;;;;;;;;6217532;23;20398;-88
2021/08/16 02:53:18;;;;;;;10.13;9.23;;;19.20;99.90;;;;;;6216905;23;20400;-89
2021/08/16 02:55:45;;;;;;;9.50;8.57;;;;;;;;;;6217811;23;20391;-88
2021/08/16 02:58:12;;;;;;;11.80;9.50;;;;;;;;;;6217912;23;20396;-88
2021/08/16 03:00:39;;;;;;;11.43;9.00;;;;;;;;;;6217426;23;20722;-89
2021/08/16 03:03:06;;;;;;;11.33;9.50;;;;;;;;;;6217537;23;20471;-89
2021/08/16 03:05:33;;;;;;;14.20;9.00;;;;;;;;;;6217601;23;20689;-88
2021/08/16 03:08:01;;;;;;;14.30;9.73;;;;;;;;;;6217676;23;20434;-89
2021/08/16 03:10:29;;;;;;;12.87;9.50;;;19.00;99.90;;;;;;6216131;23;20396;-87
2021/08/16 03:12:57;;;;;;;10.37;9.33;;;;;;;;;;6217596;23;20399;-89
2021/08/16 03:15:24;;;;;;;11.10;9.87;;;;;;;;;;6217683;23;20427;-89
2021/08/16 03:17:51;;;;;;;11.07;9.83;;;;;;;;;;6216949;23;20399;-88
2021/08/16 03:20:18;;;;;;;11.53;8.80;;;;;;;;;;6216963;23;20403;-89
2021/08/16 03:22:46;;;;;;;12.23;10.93;;;;;;;;;;6217239;23;20402;-89
2021/08/16 03:25:13;;;;;;;14.30;9.53;;;;;;;;;;6215997;23;20433;-88
2021/08/16 03:27:41;;;;;;;10.03;8.30;;;18.70;99.90;;;;;;6216950;23;20387;-88
2021/08/16 03:30:10;;;;;;;14.37;8.10;;;18.80;99.90;;;;;;6218467;23;20403;-89
2021/08/16 03:32:38;;;;;;;13.20;10.60;;;;;;;;;;6216769;23;20462;-87
2021/08/16 03:35:06;;;;;;;10.67;9.47;;;18.80;99.90;;;;;;6218275;23;20403;-87
2021/08/16 03:37:35;;;;;;;22.57;10.63;;;;;;;;;;6221120;23;20392;-88
2021/08/16 03:40:04;;;;;;;12.03;10.67;;;18.80;99.90;;;;;;6233751;23;20402;-88
2021/08/16 03:42:31;;;;;;;11.40;10.27;;;;;;;;;;6242673;23;20391;-89
2021/08/16 03:44:59;;;;;;;11.93;10.50;;;18.90;99.90;;;;;;6221284;23;20399;-89
2021/08/16 03:47:26;;;;;;;11.93;10.63;;;;;;;;;;6217015;23;20387;-88
2021/08/16 03:49:54;;;;;;;11.50;9.67;;;;;;;;;;6216796;23;20444;-87
2021/08/16 03:52:22;;;;;;;18.20;11.43;;;;;;;;;;6213693;23;20396;-88
2021/08/16 03:54:49;;;;;;;15.23;11.27;;;;;;;;;;6215961;23;20427;-87
2021/08/16 03:57:17;;;;;;;11.80;10.47;;;;;;;;;;6216377;23;20396;-88
2021/08/16 03:59:44;;;;;;;14.53;10.77;;;;;;;;;;6214348;23;20406;-88
2021/08/16 04:02:12;;;;;;;12.57;10.60;;;18.80;99.90;;;;;;6217061;23;20704;-88
2021/08/16 04:04:39;;;;;;;12.47;11.10;;;;;;;;;;6215803;23;20427;-88
2021/08/16 04:07:07;;;;;;;13.60;10.57;;;;;;;;;;6216817;23;20402;-89
2021/08/16 04:09:34;;;;;;;14.20;11.43;;;;;;;;;;6215252;23;20439;-89
2021/08/16 04:12:01;;;;;;;15.30;11.70;;;;;;;;;;6216682;23;20396;-88
2021/08/16 04:14:29;;;;;;;13.10;11.80;;;;;;;;;;6216541;23;20395;-88
2021/08/16 04:16:56;;;;;;;12.53;11.23;;;;;;;;;;6216316;23;20879;-87
2021/08/16 04:19:24;;;;;;;14.77;11.80;;;18.60;99.90;;;;;;6216803;23;20399;-87
2021/08/16 04:21:51;;;;;;;13.53;12.10;;;;;;;;;;6216608;23;20398;-89
2021/08/16 04:24:19;;;;;;;12.30;11.13;;;;;;;;;;6214853;23;20400;-88
2021/08/16 04:26:46;;;;;;;16.27;10.23;;;;;;;;;;6216623;23;20391;-88
2021/08/16 04:29:13;;;;;;;12.40;10.60;;;;;;;;;;6216293;23;20458;-89
2021/08/16 04:31:40;;;;;;;12.17;10.80;;;;;;;;;;6215993;23;20458;-87
2021/08/16 04:34:07;;;;;;;12.90;10.87;;;;;;;;;;6216924;23;20745;-88
2021/08/16 04:36:36;;;;;;;12.73;9.57;;;18.50;99.90;;;;;;6216493;23;20398;-89
2021/08/16 04:39:03;;;;;;;10.47;9.40;;;;;;;;;;6214978;23;20395;-88
2021/08/16 04:41:30;;;;;;;10.80;9.10;;;;;;;;;;6214014;23;20402;-88
2021/08/16 04:43:57;;;;;;;10.20;8.73;;;;;;;;;;6214533;23;20403;-88
2021/08/16 04:46:25;;;;;;;12.73;9.67;;;;;;;;;;6216161;23;20414;-88
2021/08/16 04:48:52;;;;;;;13.20;9.10;;;;;;;;;;6215779;23;20458;-87
2021/08/16 04:51:19;;;;;;;10.80;9.70;;;;;;;;;;6216389;23;20859;-88
2021/08/16 04:53:47;;;;;;;9.93;8.93;;;18.90;99.90;;;;;;6216389;23;20398;-89
2021/08/16 04:56:15;;;;;;;9.83;8.37;;;;;;;;;;6220940;23;20396;-89
2021/08/16 04:58:42;;;;;;;14.63;8.73;;;;;;;;;;6211262;23;20441;-88
2021/08/16 05:01:15;;;;;;;9.27;8.07;;;19.00;99.90;;;;;;6177479;23;20409;-89
2021/08/16 05:03:42;;;;;;;8.27;7.43;;;;;;;;;;6220907;23;20513;-89
2021/08/16 05:06:10;;;;;;;8.43;7.27;;;19.30;99.90;;;;;;6213948;23;20398;-89
2021/08/16 05:08:38;;;;;;;9.00;7.77;;;;;;;;;;6226886;23;20553;-88
2021/08/16 05:11:07;;;;;;;11.20;7.80;;;19.10;99.90;;;;;;6220685;23;20398;-86
2021/08/16 05:13:34;;;;;;;8.17;6.43;;;;;;;;;;6219652;23;20888;-86
2021/08/16 05:16:08;;;;;;;10.03;6.83;;;18.90;99.90;;;;;;6227468;23;20399;-88
2021/08/16 05:18:41;;;;;;;11.80;7.47;;;;;;;;;;6235330;23;20433;-88
2021/08/16 05:21:09;;;;;;;9.70;7.17;;;18.90;99.90;;;;;;6219530;23;20764;-88
2021/08/16 05:23:36;;;;;;;9.07;7.07;;;;;;;;;;6230176;23;20826;-87
2021/08/16 05:28:46;;;;;;;11.60;5.90;;;;;;;;;;6224995;23;20450;-88
2021/08/16 05:31:17;;;;;;;8.03;6.70;;;;;;;;;;6223607;23;20439;-87
2021/08/16 05:33:54;;;;;;;8.17;7.47;;;;;;;;;;6222593;23;20415;-88
2021/08/16 05:36:21;;;;;;;9.87;7.13;;;;;;;;;;6219806;23;20391;-88
2021/08/16 05:38:48;;;;;;;11.57;6.90;;;;;;;;;;6220145;23;20407;-88
2021/08/16 05:41:15;;;;;;;8.03;6.60;;;;;;;;;;6218053;23;20388;-89
2021/08/16 05:43:42;;;;;;;12.10;7.77;;;;;;;;;;6213376;23;20414;-87
2021/08/16 05:46:10;;;;;;;7.13;6.43;;;19.40;99.90;;;;;;6216987;23;20398;-88
2021/08/16 05:48:39;;;;;;;9.60;7.00;;;;;;;;;;6216350;23;20392;-89
2021/08/16 05:51:07;;;;;;;11.83;7.07;;;;;;;;;;6218047;23;20458;-89
2021/08/16 05:53:34;;;;;;;7.37;6.40;;;;;;;;;;6217307;23;20430;-88
2021/08/16 05:56:04;;;;;;;8.40;6.20;;;20.00;99.90;;;;;;6217885;23;20400;-90
2021/08/16 05:58:31;;;;;;;7.60;6.40;;;;;;;;;;6216288;23;20918;-87
2021/08/16 06:00:58;;;;;;;6.50;5.90;;;;;;;;;;6215676;23;20876;-88
2021/08/16 06:03:26;;;;;;;9.00;6.13;;;19.70;99.90;;;;;;6214998;23;20424;-88
2021/08/16 06:05:54;;;;;;;6.37;5.77;;;;;;;;;;6215658;23;20402;-87
2021/08/16 06:08:21;;;;;;;7.83;6.00;;;;;;;;;;6214638;23;20390;-87
2021/08/16 06:10:48;;;;;;;6.90;5.47;;;;;;;;;;6215654;23;20435;-88
2021/08/16 06:13:15;;;;;;;14.53;7.10;;;;;;;;;;6215744;23;20387;-89
2021/08/16 06:15:43;;;;;;;7.33;5.97;;;;;;;;;;6216024;23;20392;-88
2021/08/16 06:18:10;;;;;;;7.80;6.10;;;;;;;;;;6214713;23;20384;-87
2021/08/16 06:20:39;;;;;;;7.60;6.13;;;;;;;;;;6215841;23;20398;-88
2021/08/16 06:23:06;;;;;;;9.27;5.83;;;;;;;;;;6215389;23;20718;-87
2021/08/16 06:25:33;;;;;;;7.97;5.67;;;;;;;;;;6212170;23;20392;-87
2021/08/16 06:28:00;;;;;;;7.53;6.00;;;;;;;;;;6216297;23;20402;-87
2021/08/16 06:30:28;;;;;;;9.20;6.47;;;;;;;;;;6224647;23;20438;-87
2021/08/16 06:32:55;;;;;;;9.73;5.40;;;;;;;;;;6230873;23;20454;-88
2021/08/16 06:35:22;;;;;;;6.93;5.20;;;;;;;;;;6225033;23;20395;-87
2021/08/16 06:37:51;;;;;;;7.20;4.50;;;19.70;99.90;;;;;;6221757;23;20397;-87
2021/08/16 06:40:18;;;;;;;7.77;5.67;;;;;;;;;;6219520;23;20450;-87
2021/08/16 06:42:46;;;;;;;5.57;4.80;;;;;;;;;;6218039;23;20395;-87
2021/08/16 06:45:13;;;;;;;5.43;4.90;;;;;;;;;;6221725;23;20395;-86
2021/08/16 06:47:40;;;;;;;4.90;4.20;;;;;;;;;;6219515;23;20384;-88
2021/08/16 06:50:08;;;;;;;7.10;4.10;;;;;;;;;;6222204;23;20439;-87
2021/08/16 06:52:35;;;;;;;6.77;4.60;;;;;;;;;;6221967;23;20577;-87
2021/08/16 06:55:04;;;;;;;8.27;4.50;;;19.20;99.90;;;;;;6220473;23;20403;-88
2021/08/16 06:57:33;;;;;;;7.00;4.30;;;19.60;99.90;;;;;;6219599;23;20399;-88
2021/08/16 07:00:01;;;;;;;6.60;4.10;;;;;;;;;;6216711;23;20427;-88
2021/08/16 07:02:28;;;;;;;4.30;3.90;;;;;;;;;;6217269;23;20426;-88
2021/08/16 07:04:55;;;;;;;4.33;3.63;;;;;;;;;;6217105;23;20403;-87
2021/08/16 07:07:22;;;;;;;5.57;3.80;;;;;;;;;;6217594;23;20396;-88
2021/08/16 07:09:50;;;;;;;6.80;4.60;;;;;;;;;;6215836;23;20443;-88
2021/08/16 07:12:18;;;;;;;6.00;3.97;;;19.30;99.90;;;;;;6216360;23;20395;-86
2021/08/16 07:14:45;;;;;;;4.83;3.73;;;;;;;;;;6217403;23;20391;-88
2021/08/16 07:17:12;;;;;;;5.43;3.93;;;;;;;;;;6216817;23;20395;-88
2021/08/16 07:19:39;;;;;;;6.03;4.03;;;;;;;;;;6216945;23;20396;-87
2021/08/16 07:22:06;;;;;;;4.50;3.60;;;;;;;;;;6214885;23;20396;-88
2021/08/16 07:24:34;;;;;;;6.40;3.60;;;;;;;;;;6215299;23;20392;-88
2021/08/16 07:27:01;;;;;;;6.53;3.60;;;;;;;;;;6215808;23;20396;-87
2021/08/16 07:29:30;;;;;;;4.93;3.60;;;19.60;99.90;;;;;;6216976;23;20438;-89
2021/08/16 07:31:57;;;;;;;3.97;3.57;;;;;;;;;;6216762;23;20435;-88
2021/08/16 07:34:25;;;;;;;4.60;3.40;;;;;;;;;;6216906;23;20415;-87
2021/08/16 07:36:54;;;;;;;4.53;3.60;;;;;;;;;;6217271;23;20399;-88
2021/08/16 07:39:21;;;;;;;5.87;3.80;;;;;;;;;;6215371;23;20399;-88
2021/08/16 07:41:48;;;;;;;7.27;3.73;;;;;;;;;;6217170;23;20394;-88
2021/08/16 07:44:15;;;;;;;4.73;3.13;;;;;;;;;;6212892;23;20402;-89
2021/08/16 07:46:44;;;;;;;4.60;3.50;;;19.90;99.90;;;;;;6216733;23;20388;-87
2021/08/16 07:49:11;;;;;;;7.40;4.00;;;;;;;;;;6216162;23;20387;-87
2021/08/16 07:51:38;;;;;;;3.70;3.27;;;;;;;;;;6212633;23;20403;-87
2021/08/16 07:54:05;;;;;;;4.27;3.60;;;;;;;;;;6215142;23;20387;-88
2021/08/16 07:56:32;;;;;;;4.63;3.53;;;;;;;;;;6216560;23;20634;-88
2021/08/16 07:58:59;;;;;;;9.70;4.00;;;;;;;;;;6216422;23;20402;-87
2021/08/16 08:01:27;;;;;;;5.83;4.00;;;;;;;;;;6216336;23;20435;-88
2021/08/16 08:03:55;;;;;;;6.80;5.20;;;;;;;;;;6216330;23;20422;-87
2021/08/16 08:06:24;;;;;;;4.60;3.57;;;;;;;;;;6216161;23;20398;-88
2021/08/16 08:08:51;;;;;;;6.60;3.80;;;;;;;;;;6209237;23;20419;-88
2021/08/16 08:11:18;;;;;;;6.90;3.70;;;;;;;;;;6216353;23;20454;-87
2021/08/16 08:13:45;;;;;;;4.63;3.17;;;;;;;;;;6215596;23;20399;-87
2021/08/16 08:16:12;;;;;;;3.97;3.57;;;;;;;;;;6216070;23;20402;-88
2021/08/16 08:18:40;;;;;;;5.60;3.77;;;;;;;;;;6216311;23;20403;-88
2021/08/16 08:21:08;;;;;;;4.93;4.20;;;20.80;99.90;;;;;;6216648;23;20691;-88
2021/08/16 08:23:35;;;;;;;3.90;3.20;;;;;;;;;;6214327;23;20950;-88
2021/08/16 08:26:02;;;;;;;4.30;3.73;;;;;;;;;;6216035;23;20395;-88
2021/08/16 08:28:29;;;;;;;7.50;4.10;;;;;;;;;;6216110;23;20399;-87
2021/08/16 08:30:57;;;;;;;5.50;3.53;;;;;;;;;;6215685;23;20455;-87
2021/08/16 08:33:24;;;;;;;4.27;3.20;;;;;;;;;;6216057;23;20395;-88
2021/08/16 08:35:52;;;;;;;5.23;3.87;;;;;;;;;;6213297;23;20423;-87
2021/08/16 08:38:20;;;;;;;3.90;3.23;;;22.20;99.90;;;;;;6213262;23;20396;-88
2021/08/16 08:40:48;;;;;;;4.30;2.90;;;;;;;;;;6215346;23;20425;-88
2021/08/16 08:43:16;;;;;;;4.10;3.20;;;21.50;99.90;;;;;;6215929;23;20395;-88
2021/08/16 08:45:45;;;;;;;6.27;3.80;;;21.50;99.90;;;;;;6215958;23;20402;-88
2021/08/16 08:48:12;;;;;;;6.20;3.50;;;;;;;;;;6215145;23;20392;-88
2021/08/16 08:50:40;;;;;;;4.73;3.83;;;;;;;;;;6215137;23;20435;-87
2021/08/16 08:53:07;;;;;;;4.33;3.60;;;;;;;;;;6215994;23;20406;-89
2021/08/16 08:55:35;;;;;;;5.97;4.27;;;23.30;99.90;;;;;;6214089;23;20876;-87
2021/08/16 08:58:03;;;;;;;5.30;4.13;;;;;;;;;;6215879;23;20400;-89
2021/08/16 09:00:30;;;;;;;5.70;3.77;;;;;;;;;;6215623;23;20895;-88
2021/08/16 09:02:58;;;;;;;4.53;3.60;;;21.40;99.90;;;;;;6215819;23;20403;-86
2021/08/16 09:05:26;;;;;;;5.20;3.60;;;;;;;;;;6215999;23;20399;-88
2021/08/16 09:07:55;;;;;;;6.40;3.70;;;;;;;;;;6215852;23;20403;-86
2021/08/16 09:10:23;;;;;;;9.43;3.87;;;;;;;;;;6214071;23;20471;-87
2021/08/16 09:12:55;;;;;;;6.47;4.63;;;21.60;99.90;;;;;;6215595;23;20394;-88
2021/08/16 09:15:24;;;;;;;5.00;3.90;;;21.80;99.90;;;;;;6214915;23;20415;-87
2021/08/16 09:17:51;;;;;;;5.77;4.40;;;;;;;;;;6216107;23;20391;-87
2021/08/16 09:20:20;;;;;;;7.53;4.90;;;22.40;99.90;;;;;;6226871;23;20395;-87
2021/08/16 09:23:05;;;;;;;7.10;4.60;;;22.10;99.90;;;;;;6222414;23;20375;-88
2021/08/16 09:25:36;;;;;;;7.20;4.20;;;22.10;99.90;;;;;;6213779;23;20399;-86
2021/08/16 09:28:06;;;;;;;4.40;3.57;;;22.30;99.90;;;;;;6214829;23;20396;-87
2021/08/16 09:30:35;;;;;;;5.50;4.50;;;22.60;99.90;;;;;;6215251;23;20910;-86
2021/08/16 09:33:13;;;;;;;5.00;4.00;;;23.20;99.90;;;;;;6211548;23;20396;-87
2021/08/16 09:35:52;;;;;;;5.30;3.80;;;23.70;99.90;;;;;;6215752;23;20391;-87
2021/08/16 09:38:20;;;;;;;5.77;4.03;;;;;;;;;;6214631;23;20391;-87
2021/08/16 09:40:50;;;;;;;6.07;3.97;;;;;;;;;;6215229;23;20398;-88
2021/08/16 09:43:25;;;;;;;5.47;4.03;;;22.30;99.90;;;;;;6215244;23;20457;-87
2021/08/16 09:45:52;;;;;;;5.23;3.83;;;21.80;99.90;;;;;;6215216;23;20398;-89
2021/08/16 09:48:21;;;;;;;6.20;4.77;;;21.50;99.90;;;;;;6215372;23;20402;-88
2021/08/16 09:50:51;;;;;;;4.97;3.60;;;21.30;99.90;;;;;;6214757;23;20537;-91
2021/08/16 09:53:20;;;;;;;5.27;3.87;;;21.20;99.90;;;;;;6210761;23;20391;-87
2021/08/16 09:55:49;;;;;;;5.47;3.47;;;21.20;99.90;;;;;;6215982;23;20403;-87
2021/08/16 09:58:19;;;;;;;4.90;3.33;;;21.10;99.90;;;;;;6215424;23;20395;-87
2021/08/16 10:00:48;;;;;;;8.30;3.90;;;21.40;99.90;;;;;;6215519;23;20749;-90
2021/08/16 10:03:14;;;;;;;4.80;3.50;;;21.90;99.90;;;;;;6215695;23;20398;-88
2021/08/16 10:05:42;;;;;;;4.57;3.33;;;22.20;99.90;;;;;;6215582;23;20449;-88
2021/08/16 10:08:12;;;;;;;7.37;4.00;;;22.40;99.90;;;;;;6215593;23;20394;-88
2021/08/16 10:10:42;;;;;;;5.30;3.87;;;22.50;99.90;;;;;;6213336;23;20443;-87
2021/08/16 10:13:10;;;;;;;5.83;3.07;;;22.00;99.90;;;;;;6213043;23;20399;-92
2021/08/16 10:15:40;;;;;;;5.50;3.70;;;21.90;99.90;;;;;;6215805;23;20394;-89
2021/08/16 10:18:12;;;;;;;6.90;3.77;;;21.20;99.90;;;;;;6216073;23;20395;-88
2021/08/16 10:20:40;;;;;;;5.10;3.97;;;21.40;99.90;;;;;;6215309;23;20387;-88
2021/08/16 10:23:18;;;;;;;4.67;3.70;;;21.50;99.90;;;;;;6213664;23;20387;-88
2021/08/16 10:25:46;;;;;;;4.83;4.07;;;21.60;99.90;;;;;;6213075;23;20391;-88
2021/08/16 10:28:24;;;;;;;4.17;3.50;;;21.70;99.90;;;;;;6210353;23;20399;-88
2021/08/16 10:30:52;;;;;;;7.73;3.87;;;21.50;99.90;;;;;;6217259;23;20458;-88
2021/08/16 10:33:19;;;;;;;5.40;3.93;;;20.80;99.90;;;;;;6217789;23;20395;-89
2021/08/16 10:35:48;;;;;;;3.93;3.20;;;20.90;99.90;;;;;;6217084;23;20392;-88
2021/08/16 10:38:16;;;;;;;6.13;3.10;;;21.00;99.90;;;;;;6217200;23;20395;-88
2021/08/16 10:40:45;;;;;;;6.97;3.33;;;21.10;99.90;;;;;;6215243;23;20455;-89
2021/08/16 10:43:13;;;;;;;5.60;3.60;;;21.30;99.90;;;;;;6211736;23;20784;-88
2021/08/16 10:45:45;;;;;;;5.60;3.30;;;21.10;99.90;;;;;;6217058;23;20387;-87
2021/08/16 10:48:23;;;;;;;6.03;3.60;;;20.70;99.90;;;;;;6217393;23;20391;-88
2021/08/16 10:50:50;;;;;;;7.67;3.37;;;;;;;;;;6216382;23;20431;-89
2021/08/16 10:53:17;;;;;;;5.20;3.10;;;;;;;;;;6214526;23;20406;-88
2021/08/16 10:55:45;;;;;;;5.00;3.07;;;;;;;;;;6208975;23;20398;-89
2021/08/16 10:58:13;;;;;;;5.53;3.57;;;21.60;99.90;;;;;;6217483;23;20399;-90
2021/08/16 11:00:41;;;;;;;5.63;3.20;;;22.80;99.90;;;;;;6215252;23;20433;-89
2021/08/16 11:03:09;;;;;;;3.87;2.80;;;;;;;;;;6217312;23;20407;-90
2021/08/16 11:05:38;;;;;;;4.10;2.97;;;24.00;99.90;;;;;;6217383;23;20402;-89
2021/08/16 11:08:07;;;;;;;5.20;2.60;;;24.60;99.90;;;;;;6213298;23;20506;-90
2021/08/16 11:10:39;;;;;;;5.50;3.90;;;24.60;99.90;;;;;;6215548;23;20517;-89
2021/08/16 11:13:12;;;;;;;4.93;3.23;;;25.10;99.90;;;;;;6212282;23;20863;-90
2021/08/16 11:15:39;;;;;;;4.80;3.23;;;;;;;;;;6217513;23;20399;-89
2021/08/16 11:18:11;;;;;;;5.03;3.43;;;25.40;99.90;;;;;;6216907;23;20433;-89
2021/08/16 11:20:40;;;;;;;7.60;3.30;;;24.70;99.90;;;;;;6212410;23;20864;-91
2021/08/16 11:23:07;;;;;;;8.00;3.60;;;;;;;;;;6215372;23;20396;-90
2021/08/16 11:25:34;;;;;;;5.97;3.10;;;23.10;99.90;;;;;;6215717;23;20391;-89
2021/08/16 11:28:02;;;;;;;5.87;3.43;;;;;;;;;;6216798;23;20395;-88
2021/08/16 11:30:29;;;;;;;4.40;3.30;;;21.80;99.90;;;;;;6216799;23;20433;-89
2021/08/16 11:32:56;;;;;;;7.40;3.63;;;;;;;;;;6216988;23;20406;-88
2021/08/16 11:35:25;;;;;;;6.50;3.73;;;21.90;99.90;;;;;;6216960;23;20711;-89
2021/08/16 11:37:53;;;;;;;4.70;3.47;;;22.40;99.90;;;;;;6212339;23;20391;-89
2021/08/16 11:40:21;;;;;;;6.57;3.40;;;;;;;;;;6214341;23;20387;-88
2021/08/16 11:42:48;;;;;;;4.83;3.10;;;;;;;;;;6216699;23;20395;-87
2021/08/16 11:45:17;;;;;;;9.90;2.97;;;23.60;99.90;;;;;;6216289;23;20392;-88
2021/08/16 11:47:47;;;;;;;5.17;3.57;;;22.90;99.90;;;;;;6216600;23;20398;-89
2021/08/16 11:50:16;;;;;;;5.47;3.70;;;23.50;99.90;;;;;;6216729;23;20402;-89
2021/08/16 11:52:44;;;;;;;4.17;3.30;;;;;;;;;;6216755;23;20838;-90
2021/08/16 11:55:12;;;;;;;6.87;3.23;;;24.10;99.90;;;;;;6213471;23;20713;-88
2021/08/16 11:57:41;;;;;;;5.60;2.87;;;;;;;;;;6216157;23;20872;-88
2021/08/16 12:00:10;;;;;;;4.40;3.40;;;23.50;99.90;;;;;;6215858;23;20455;-88
2021/08/16 12:02:40;;;;;;;7.50;3.47;;;24.10;99.90;;;;;;6212662;23;20392;-89
2021/08/16 12:05:09;;;;;;;7.70;3.40;;;23.70;99.90;;;;;;6215738;23;20390;-89
2021/08/16 12:07:36;;;;;;;4.77;3.43;;;23.60;99.90;;;;;;6216988;23;20882;-88
2021/08/16 12:10:17;;;;;;;4.60;3.30;;;22.60;99.90;;;;;;6215249;23;20922;-88
2021/08/16 12:12:44;;;;;;;5.60;3.27;;;;;;;;;;6236397;23;20467;-89
2021/08/16 12:15:15;;;;;;;6.37;3.80;;;21.70;99.90;;;;;;6241658;23;20455;-88
2021/08/16 12:17:43;;;;;;;3.70;2.80;;;;;;;;;;6215922;23;20392;-87
2021/08/16 12:20:12;;;;;;;4.93;3.20;;;23.00;99.90;;;;;;6213639;23;20396;-89
2021/08/16 12:22:48;;;;;;;7.30;3.80;;;23.20;99.90;;;;;;6215697;23;20392;-88
2021/08/16 12:25:16;;;;;;;2.70;2.37;;;23.70;99.90;;;;;;6213973;23;20473;-91
2021/08/16 12:27:43;;;;;;;4.40;3.10;;;23.00;99.90;;;;;;6213897;23;20400;-87
2021/08/16 12:30:17;;;;;;;6.00;2.60;;;23.20;99.90;;;;;;6216063;23;20402;-89
2021/08/16 12:32:44;;;;;;;9.83;3.63;;;;;;;;;;6207811;23;20459;-92
2021/08/16 12:35:15;;;;;;;6.70;3.30;;;22.50;99.90;;;;;;6216160;23;20398;-88
2021/08/16 12:37:42;;;;;;;4.33;3.37;;;;;;;;;;6216075;23;20399;-90
2021/08/16 12:40:11;;;;;;;3.50;2.70;;;22.10;99.90;;;;;;6215127;23;20391;-88
2021/08/16 12:42:41;;;;;;;4.07;3.00;;;22.00;99.90;;;;;;6216258;23;20399;-87
2021/08/16 12:45:09;;;;;;;4.10;2.90;;;22.40;99.90;;;;;;6216248;23;20712;-87
2021/08/16 12:47:37;;;;;;;3.63;2.67;;;22.80;99.90;;;;;;6215913;23;20401;-88
2021/08/16 12:50:06;;;;;;;4.10;2.60;;;22.00;99.90;;;;;;6215409;23;20387;-90
2021/08/16 12:52:33;;;;;;;5.80;2.60;;;;;;;;;;6216530;23;20439;-88
2021/08/16 12:55:00;;;;;;;4.20;3.10;;;;;;;;;;6213871;23;20395;-87
2021/08/16 12:57:28;;;;;;;9.93;3.53;;;;;;;;;;6215677;23;20891;-87
2021/08/16 12:59:57;;;;;;;5.57;3.10;;;23.20;99.90;;;;;;6215696;23;20423;-87
2021/08/16 13:02:25;;;;;;;5.43;3.13;;;23.80;99.90;;;;;;6215724;23;20777;-88
2021/08/16 13:04:53;;;;;;;4.97;3.23;;;24.20;99.90;;;;;;6215907;23;20876;-88
2021/08/16 13:07:21;;;;;;;6.53;3.43;;;;;;;;;;6215845;23;20909;-86
2021/08/16 13:09:48;;;;;;;5.23;3.30;;;23.60;99.90;;;;;;6214269;23;20395;-86
2021/08/16 13:12:16;;;;;;;4.97;3.20;;;;;;;;;;6211893;23;20439;-86
2021/08/16 13:14:44;;;;;;;4.43;2.97;;;;;;;;;;6216458;23;20402;-88
2021/08/16 13:17:13;;;;;;;4.30;3.00;;;21.60;99.90;;;;;;6212937;23;20396;-87
2021/08/16 13:19:40;;;;;;;9.80;3.77;;;;;;;;;;6215891;23;20403;-87
2021/08/16 13:22:07;;;;;;;6.70;3.90;;;;;;;;;;6213891;23;20422;-86
2021/08/16 13:24:35;;;;;;;5.07;3.10;;;;;;;;;;6214301;23;20926;-87
2021/08/16 13:27:02;;;;;;;4.80;3.30;;;;;;;;;;6216063;23;20388;-86
2021/08/16 13:29:29;;;;;;;5.57;3.30;;;;;;;;;;6213609;23;20475;-87
2021/08/16 13:31:56;;;;;;;6.10;3.40;;;;;;;;;;6215260;23;20451;-87
2021/08/16 13:34:25;;;;;;;6.20;4.10;;;22.20;99.90;;;;;;6215849;23;20478;-87
2021/08/16 13:36:54;;;;;;;5.63;3.47;;;22.00;99.90;;;;;;6215951;23;20398;-88
2021/08/16 13:39:21;;;;;;;3.83;3.33;;;22.00;99.90;;;;;;6214111;23;20816;-90
2021/08/16 13:41:49;;;;;;;5.20;3.87;;;;;;;;;;6215967;23;20404;-91
2021/08/16 13:44:16;;;;;;;3.73;2.70;;;;;;;;;;6215827;23;20407;-88
2021/08/16 13:46:43;;;;;;;8.53;3.80;;;;;;;;;;6216379;23;20399;-86
2021/08/16 13:49:10;;;;;;;4.63;3.20;;;;;;;;;;6215789;23;20396;-87
2021/08/16 13:51:39;;;;;;;6.10;3.77;;;21.20;99.90;;;;;;6215601;23;20652;-87
2021/08/16 13:54:08;;;;;;;15.80;5.40;;;21.80;99.90;;;;;;6213536;23;20400;-86
2021/08/16 13:56:35;;;;;;;5.80;3.20;;;;;;;;;;6215227;23;20875;-87